createdAt,value
2023-04-15T00:00:22.561Z,100.00
2023-04-15T00:05:46.916Z,100.00
2023-04-15T00:10:51.169Z,100.00
2023-04-15T00:15:56.702Z,100.00
2023-04-15T00:21:01.244Z,100.00
2023-04-15T00:26:05.676Z,100.00
2023-04-15T00:31:11.326Z,100.00
2023-04-15T00:36:15.729Z,100.00
2023-04-15T00:41:21.178Z,100.00
2023-04-15T00:46:29.961Z,100.00
2023-04-15T00:51:36.420Z,100.00
2023-04-15T00:56:41.225Z,100.00
2023-04-15T01:01:48.035Z,100.00
2023-04-15T01:06:53.007Z,100.00
2023-04-15T01:11:57.316Z,100.00
2023-04-15T01:17:03.570Z,100.00
2023-04-15T01:22:07.766Z,100.00
2023-04-15T01:27:13.516Z,100.00
2023-04-15T01:32:17.857Z,100.00
2023-04-15T01:37:21.973Z,100.00
2023-04-15T01:42:29.564Z,100.00
2023-04-15T01:47:33.815Z,100.00
2023-04-15T01:52:37.944Z,100.00
2023-04-15T01:57:43.697Z,100.00
2023-04-15T02:02:48.201Z,100.00
2023-04-15T02:07:52.516Z,100.00
2023-04-15T02:12:58.361Z,100.00
2023-04-15T02:18:06.292Z,100.00
2023-04-15T02:23:11.433Z,100.00
2023-04-15T02:28:17.168Z,100.00
2023-04-15T02:33:23.368Z,100.00
2023-04-15T02:38:27.548Z,100.00
2023-04-15T02:43:33.288Z,100.00
2023-04-15T02:48:37.536Z,100.00
2023-04-15T02:53:42.569Z,100.00
2023-04-15T02:58:50.774Z,100.00
2023-04-15T03:03:55.526Z,100.00
2023-04-15T03:09:00.637Z,100.00
2023-04-15T03:14:07.924Z,100.00
2023-04-15T03:19:15.213Z,99.93
2023-04-15T03:24:20.475Z,99.37
2023-04-15T03:29:26.464Z,99.18
2023-04-15T03:34:30.924Z,98.55
2023-04-15T03:39:35.537Z,99.00
2023-04-15T03:44:41.164Z,98.45
2023-04-15T03:49:45.447Z,98.27
2023-04-15T03:54:50.043Z,99.12
2023-04-15T03:59:55.572Z,99.51
2023-04-15T04:04:59.987Z,100.00
2023-04-15T04:10:05.133Z,99.44
2023-04-15T04:15:11.944Z,100.00
2023-04-15T04:20:16.565Z,100.00
2023-04-15T04:25:20.967Z,100.00
2023-04-15T04:30:26.743Z,100.00
2023-04-15T04:35:31.047Z,100.00
2023-04-15T04:40:35.543Z,99.67
2023-04-15T04:45:41.557Z,98.83
2023-04-15T04:50:47.222Z,98.48
2023-04-15T04:55:51.452Z,98.45
2023-04-15T05:00:58.767Z,97.91
2023-04-15T05:06:06.530Z,97.27
2023-04-15T05:11:10.835Z,96.59
2023-04-15T05:16:17.297Z,95.75
2023-04-15T05:21:22.219Z,94.19
2023-04-15T05:26:27.733Z,94.25
2023-04-15T05:31:33.682Z,93.96
2023-04-15T05:36:39.245Z,94.41
2023-04-15T05:41:43.671Z,94.35
2023-04-15T05:46:49.313Z,92.05
2023-04-15T05:51:53.566Z,92.70
2023-04-15T05:56:58.677Z,93.60
2023-04-15T06:02:04.338Z,93.56
2023-04-15T06:07:08.510Z,91.71
2023-04-15T06:12:13.410Z,89.86
2023-04-15T06:17:19.562Z,89.14
2023-04-15T06:22:24.155Z,86.99
2023-04-15T06:27:28.256Z,85.04
2023-04-15T06:32:34.387Z,82.65
2023-04-15T06:37:38.639Z,66.78
2023-04-15T06:42:42.958Z,51.03
2023-04-15T06:47:48.639Z,48.50
2023-04-15T06:52:52.781Z,51.01
2023-04-15T06:57:57.128Z,52.54
2023-04-15T07:03:04.195Z,49.99
2023-04-15T07:08:09.198Z,45.18
2023-04-15T07:13:13.351Z,44.93
2023-04-15T07:18:18.956Z,46.39
2023-04-15T07:23:23.462Z,47.93
2023-04-15T07:28:27.540Z,43.77
2023-04-15T07:33:33.067Z,36.03
2023-04-15T07:38:37.511Z,33.59
2023-04-15T07:43:41.980Z,34.58
2023-04-15T07:48:47.516Z,33.44
2023-04-15T07:53:52.065Z,34.89
2023-04-15T07:58:56.218Z,35.65
2023-04-15T08:04:02.086Z,32.34
2023-04-15T08:09:06.464Z,29.88
2023-04-15T08:14:10.739Z,32.31
2023-04-15T08:19:16.623Z,34.16
2023-04-15T08:24:21.554Z,35.62
2023-04-15T08:29:25.649Z,36.27
2023-04-15T08:34:31.443Z,35.53
2023-04-15T08:39:35.673Z,35.01
2023-04-15T08:44:41.559Z,38.60
2023-04-15T08:49:54.100Z,38.87
2023-04-15T08:54:59.948Z,37.60
2023-04-15T09:00:05.887Z,41.37
2023-04-15T09:05:11.903Z,40.79
2023-04-15T09:10:16.218Z,38.97
2023-04-15T09:15:20.672Z,35.35
2023-04-15T09:20:26.641Z,35.85
2023-04-15T09:25:34.320Z,38.87
2023-04-15T09:30:39.374Z,36.93
2023-04-15T09:35:59.371Z,37.30
2023-04-15T09:41:03.658Z,38.57
2023-04-15T09:46:08.351Z,39.54
2023-04-15T09:51:14.434Z,40.88
2023-04-15T09:56:18.785Z,38.50
2023-04-15T10:01:23.217Z,37.84
2023-04-15T10:06:29.111Z,37.05
2023-04-15T10:11:35.083Z,37.72
2023-04-15T10:16:42.800Z,38.11
2023-04-15T10:21:49.380Z,38.50
2023-04-15T10:26:54.374Z,38.67
2023-04-15T10:32:00.788Z,37.92
2023-04-15T10:37:06.973Z,37.93
2023-04-15T10:42:18.599Z,40.59
2023-04-15T10:47:26.834Z,39.72
2023-04-15T10:52:33.226Z,38.08
2023-04-15T10:57:40.325Z,36.93
2023-04-15T11:02:47.614Z,39.16
2023-04-15T11:07:56.565Z,39.24
2023-04-15T11:13:02.219Z,39.87
2023-04-15T11:18:12.269Z,40.55
2023-04-15T11:23:19.911Z,42.24
2023-04-15T11:28:27.416Z,41.98
2023-04-15T11:33:31.939Z,42.10
2023-04-15T11:38:38.372Z,41.12
2023-04-15T11:43:43.061Z,41.33
2023-04-15T11:48:48.484Z,45.02
2023-04-15T11:53:55.160Z,45.88
2023-04-15T11:59:00.704Z,45.92
2023-04-15T12:04:13.380Z,44.24
2023-04-15T12:09:20.510Z,44.61
2023-04-15T12:14:28.513Z,46.31
2023-04-15T12:19:36.996Z,46.42
2023-04-15T12:24:48.063Z,46.66
2023-04-15T12:29:52.559Z,46.58
2023-04-15T12:34:56.800Z,45.00
2023-04-15T12:40:02.793Z,45.87
2023-04-15T12:45:08.036Z,47.51
2023-04-15T12:50:12.372Z,47.31
2023-04-15T12:55:18.333Z,47.10
2023-04-15T13:00:22.732Z,47.29
2023-04-15T13:05:27.164Z,46.23
2023-04-15T13:10:33.016Z,46.07
2023-04-15T13:15:37.268Z,46.49
2023-04-15T13:20:41.826Z,46.10
2023-04-15T13:25:47.871Z,39.26
2023-04-15T13:30:52.216Z,36.48
2023-04-15T13:35:56.578Z,34.96
2023-04-15T13:41:02.341Z,33.32
2023-04-15T13:46:07.909Z,32.01
2023-04-15T13:51:16.628Z,29.74
2023-04-15T13:56:22.483Z,34.44
2023-04-15T14:01:26.701Z,35.17
2023-04-15T14:06:32.381Z,38.17
2023-04-15T14:11:40.713Z,38.25
2023-04-15T14:16:45.311Z,39.36
2023-04-15T14:21:49.942Z,40.63
2023-04-15T14:26:57.064Z,43.70
2023-04-15T14:32:11.096Z,41.50
2023-04-15T14:37:16.845Z,42.31
2023-04-15T14:42:22.561Z,43.10
2023-04-15T14:47:26.914Z,43.40
2023-04-15T14:52:33.225Z,44.40
2023-04-15T14:57:39.145Z,45.16
2023-04-15T15:02:43.777Z,44.97
2023-04-15T15:07:48.192Z,45.18
2023-04-15T15:12:53.905Z,46.02
2023-04-15T15:17:58.069Z,45.93
2023-04-15T15:23:02.905Z,44.87
2023-04-15T15:28:09.100Z,45.61
2023-04-15T15:33:13.356Z,45.14
2023-04-15T15:38:17.596Z,46.03
2023-04-15T15:43:23.359Z,45.48
2023-04-15T15:48:27.788Z,45.67
2023-04-15T15:53:32.177Z,46.19
2023-04-15T15:58:38.066Z,45.72
2023-04-15T16:03:43.409Z,45.00
2023-04-15T16:08:48.113Z,44.77
2023-04-15T16:13:54.241Z,45.28
2023-04-15T16:18:59.104Z,45.03
2023-04-15T16:24:03.618Z,44.91
2023-04-15T16:29:09.690Z,44.03
2023-04-15T16:34:13.802Z,44.57
2023-04-15T16:39:17.899Z,51.14
2023-04-15T16:44:23.428Z,59.67
2023-04-15T16:49:27.777Z,64.50
2023-04-15T16:54:33.667Z,67.96
2023-04-15T16:59:39.516Z,69.96
2023-04-15T17:04:43.804Z,70.73
2023-04-15T17:09:48.377Z,73.23
2023-04-15T17:14:53.897Z,78.16
2023-04-15T17:19:58.278Z,80.60
2023-04-15T17:25:02.432Z,83.62
2023-04-15T17:30:09.642Z,85.88
2023-04-15T17:35:14.082Z,86.55
2023-04-15T17:40:18.624Z,85.89
2023-04-15T17:45:24.687Z,86.71
2023-04-15T17:50:28.937Z,86.94
2023-04-15T17:55:34.654Z,93.68
2023-04-15T18:00:40.312Z,97.01
2023-04-15T18:05:44.688Z,100.00
2023-04-15T18:10:49.032Z,100.00
2023-04-15T18:15:54.929Z,100.00
2023-04-15T18:20:59.414Z,100.00
2023-04-15T18:26:03.858Z,100.00
2023-04-15T18:31:09.986Z,100.00
2023-04-15T18:36:14.218Z,100.00
2023-04-15T18:41:18.440Z,100.00
2023-04-15T18:46:24.601Z,100.00
2023-04-15T18:51:28.770Z,100.00
2023-04-15T18:56:33.380Z,100.00
2023-04-15T19:01:38.914Z,100.00
2023-04-15T19:06:43.520Z,100.00
2023-04-15T19:11:48.103Z,100.00
2023-04-15T19:16:54.029Z,100.00
2023-04-15T19:21:58.569Z,100.00
2023-04-15T19:27:03.120Z,100.00
2023-04-15T19:32:09.117Z,100.00
2023-04-15T19:37:13.517Z,100.00
2023-04-15T19:42:18.438Z,100.00
2023-04-15T19:47:24.270Z,100.00
2023-04-15T19:52:28.642Z,100.00
2023-04-15T19:57:32.931Z,100.00
2023-04-15T20:02:38.574Z,100.00
2023-04-15T20:07:45.311Z,100.00
2023-04-15T20:12:53.231Z,100.00
2023-04-15T20:17:59.198Z,100.00
2023-04-15T20:23:04.867Z,100.00
2023-04-15T20:28:09.267Z,100.00
2023-04-15T20:33:15.900Z,100.00
2023-04-15T20:38:20.106Z,100.00
2023-04-15T20:43:25.825Z,100.00
2023-04-15T20:48:31.439Z,100.00
2023-04-15T20:53:36.088Z,100.00
2023-04-15T20:58:40.224Z,100.00
2023-04-15T21:03:45.977Z,100.00
2023-04-15T21:08:52.472Z,100.00
2023-04-15T21:13:56.734Z,100.00
2023-04-15T21:19:02.441Z,100.00
2023-04-15T21:24:08.097Z,100.00
2023-04-15T21:29:12.401Z,100.00
2023-04-15T21:34:18.520Z,100.00
2023-04-15T21:39:22.718Z,100.00
2023-04-15T21:44:27.105Z,100.00
2023-04-15T21:49:32.985Z,100.00
2023-04-15T21:54:38.371Z,100.00
2023-04-15T21:59:42.650Z,100.00
2023-04-15T22:04:48.210Z,100.00
2023-04-15T22:09:52.417Z,100.00
2023-04-15T22:14:57.474Z,100.00
2023-04-15T22:20:04.645Z,100.00
2023-04-15T22:25:10.185Z,100.00
2023-04-15T22:30:14.755Z,100.00
2023-04-15T22:35:20.456Z,100.00
2023-04-15T22:40:25.174Z,100.00
2023-04-15T22:45:29.315Z,100.00
2023-04-15T22:50:34.955Z,100.00
2023-04-15T22:55:39.555Z,100.00
2023-04-15T23:00:44.009Z,100.00
2023-04-15T23:05:49.792Z,100.00
2023-04-15T23:10:54.126Z,100.00
2023-04-15T23:15:58.380Z,100.00
2023-04-15T23:21:04.735Z,100.00
2023-04-15T23:26:09.011Z,100.00
2023-04-15T23:31:13.468Z,100.00
2023-04-15T23:36:19.419Z,100.00
2023-04-15T23:41:23.831Z,100.00
2023-04-15T23:46:28.157Z,100.00
2023-04-15T23:51:33.967Z,100.00
2023-04-15T23:56:38.596Z,100.00
